Time;durP1;ratioP1;P1;durP2;ratioP2;P2;SDS_P1;SDS_P2;PMS_P1;PMS_P2;Temp;Humidity;BMP_temperature;BMP_pressure;BME280_temperature;BME280_humidity;BME280_pressure;Samples;Min_cycle;Max_cycle;Signal;HPM_P1;HPM_P2
2023/09/17 00:01:18;;;;;;;11.50;8.30;;;;;;;16.44;75.86;99799.49;105906;1257;74408;-23
2023/09/17 00:03:45;;;;;;;11.30;9.10;;;;;;;16.44;75.23;99794.90;105882;1251;72652;-23
2023/09/17 00:06:13;;;;;;;11.70;9.40;;;;;;;16.26;75.15;99800.61;105576;1254;61102;-23
2023/09/17 00:08:40;;;;;;;11.70;9.30;;;;;;;16.03;75.96;99797.89;105829;1256;61186;-23
2023/09/17 00:11:07;;;;;;;12.50;8.60;;;;;;;15.75;76.81;99795.32;105917;1251;73846;-23
2023/09/17 00:13:35;;;;;;;11.70;8.90;;;;;;;15.52;77.31;99800.32;105656;1260;74369;-23
2023/09/17 00:16:02;;;;;;;7.70;5.60;;;;;;;15.36;77.89;99795.84;105581;1254;72692;-23
2023/09/17 00:18:30;;;;;;;8.20;6.00;;;;;;;15.80;78.36;99798.75;105532;1254;61156;-23
2023/09/17 00:20:57;;;;;;;8.70;6.70;;;;;;;16.31;76.48;99793.71;105598;1257;61179;-23
2023/09/17 00:23:24;;;;;;;8.40;6.60;;;;;;;16.35;75.57;99791.70;105937;1251;72712;-23
2023/09/17 00:25:51;;;;;;;9.70;7.80;;;;;;;16.14;75.84;99798.75;105840;1256;74687;-23
2023/09/17 00:28:19;;;;;;;9.50;8.10;;;;;;;15.91;76.36;99797.70;105949;1254;72406;-23
2023/09/17 00:30:46;;;;;;;10.40;8.00;;;;;;;15.69;76.81;99792.64;105775;1251;61051;-23
2023/09/17 00:33:13;;;;;;;11.70;8.70;;;;;;;15.45;77.68;99789.66;105553;1264;61193;-23
2023/09/17 00:35:41;;;;;;;6.60;4.80;;;;;;;15.27;78.26;99789.22;105940;1251;73818;-23
2023/09/17 00:38:09;;;;;;;6.30;4.90;;;;;;;15.73;78.41;99789.85;105861;1257;74581;-23
2023/09/17 00:40:38;;;;;;;8.20;6.70;;;;;;;16.26;76.46;99790.34;105874;1251;72657;-23
2023/09/17 00:43:06;;;;;;;8.40;6.80;;;;;;;16.26;75.59;99786.98;105834;1251;61151;-23
2023/09/17 00:45:33;;;;;;;10.40;7.90;;;;;;;16.10;75.95;99787.77;105924;1256;61152;-23
2023/09/17 00:48:03;;;;;;;10.90;7.80;;;;;;;15.89;76.48;99788.96;105415;1253;73848;-23
2023/09/17 00:50:31;;;;;;;10.50;7.60;;;;;;;15.68;76.45;99786.46;105400;1251;73122;-23
2023/09/17 00:52:58;;;;;;;10.60;8.60;;;;;;;15.46;77.20;99782.46;105917;1254;71523;-23
2023/09/17 00:55:28;;;;;;;6.00;5.20;;;;;;;15.27;78.31;99781.39;105734;1251;61205;-23
2023/09/17 00:57:55;;;;;;;8.70;5.20;;;;;;;15.69;78.63;99779.23;105873;1257;61278;-23
2023/09/17 01:00:23;;;;;;;9.40;6.30;;;;;;;16.18;76.55;99782.80;105682;1251;73845;-23
2023/09/17 01:02:51;;;;;;;9.60;7.30;;;;;;;16.23;75.78;99784.98;105593;1251;74357;-23
2023/09/17 01:05:19;;;;;;;9.60;7.40;;;;;;;16.11;75.93;99786.13;105640;1254;72661;-23
2023/09/17 01:07:46;;;;;;;9.90;7.80;;;;;;;15.87;75.98;99780.23;105559;1252;61224;-23
2023/09/17 01:10:14;;;;;;;13.60;8.40;;;;;;;15.61;76.96;99779.27;105553;1256;61249;-23
2023/09/17 01:12:42;;;;;;;10.60;8.10;;;;;;;15.38;77.53;99781.09;105902;1251;73871;-23
2023/09/17 01:15:10;;;;;;;7.50;5.80;;;;;;;15.20;78.69;99781.02;105855;1256;74319;-23
2023/09/17 01:17:37;;;;;;;7.50;5.10;;;;;;;15.64;78.46;99777.54;105817;1251;72319;-23
2023/09/17 01:20:25;;;;;;;7.90;6.20;;;;;;;16.16;76.77;99777.95;105596;1254;61154;-24
2023/09/17 01:22:55;;;;;;;10.90;7.50;;;;;;;16.18;75.73;99774.43;105568;1260;61054;-23
2023/09/17 01:25:35;;;;;;;8.80;7.60;;;;;;;16.01;76.06;99768.84;105637;1260;72566;-21
2023/09/17 01:28:05;;;;;;;8.80;7.90;;;;;;;15.72;76.56;99766.86;105626;1254;73057;-21
2023/09/17 01:30:33;;;;;;;10.40;7.90;;;;;;;15.47;77.30;99762.08;105687;1255;71698;-24
2023/09/17 01:33:01;;;;;;;8.70;5.00;;;;;;;15.29;77.70;99762.50;105625;1252;61161;-23
2023/09/17 01:35:29;;;;;;;6.90;5.50;;;;;;;15.67;77.92;99760.18;105794;1254;61113;-23
2023/09/17 01:37:59;;;;;;;9.40;6.20;;;;;;;16.11;76.04;99761.79;105654;1254;73847;-23
2023/09/17 01:47:31;;;;;;;9.00;7.30;;;;;;;15.64;76.92;99760.95;102630;1293;599379;-23
2023/09/17 01:49:59;;;;;;;9.30;7.50;;;;;;;15.46;77.12;99764.48;104796;1271;61137;-22
2023/09/17 01:52:32;;;;;;;6.10;4.40;;;;;;;15.32;77.68;99764.01;104733;1267;61009;-22
2023/09/17 01:55:00;;;;;;;6.20;5.30;;;;;;;15.74;77.85;99760.06;104655;1271;69802;-22
2023/09/17 01:57:29;;;;;;;8.70;6.50;;;;;;;16.16;75.96;99753.94;104791;1274;73329;-22
2023/09/17 01:59:58;;;;;;;8.30;7.00;;;;;;;16.21;75.43;99752.83;103906;1269;2948162;-23
2023/09/17 02:02:26;;;;;;;8.60;7.40;;;;;;;15.99;75.95;99751.30;104799;1266;61156;-24
2023/09/17 02:04:57;;;;;;;9.70;7.80;;;;;;;15.74;76.17;99749.58;104822;1269;61157;-24
2023/09/17 02:07:25;;;;;;;8.80;7.80;;;;;;;15.48;76.66;99748.19;104800;1270;61128;-23
2023/09/17 02:09:53;;;;;;;9.60;8.60;;;;;;;15.28;77.34;99748.81;104835;1263;71285;-24
2023/09/17 02:12:21;;;;;;;8.70;5.60;;;;;;;15.12;77.89;99747.27;104867;1271;74341;-24
2023/09/17 02:14:49;;;;;;;8.10;5.40;;;;;;;15.55;77.85;99745.46;104886;1263;71683;-23
2023/09/17 02:17:18;;;;;;;8.40;6.50;;;;;;;16.06;76.34;99743.16;104828;1267;61255;-24
2023/09/17 02:19:46;;;;;;;8.40;7.30;;;;;;;16.06;75.49;99734.19;104848;1263;61105;-23
2023/09/17 02:22:14;;;;;;;9.10;7.40;;;;;;;15.87;75.89;99736.66;105073;1269;73049;-23
2023/09/17 02:24:42;;;;;;;9.20;7.70;;;;;;;15.61;76.39;99733.88;104889;1271;73366;-24
2023/09/17 02:27:10;;;;;;;10.30;7.70;;;;;;;15.35;76.83;99731.68;104824;1265;72706;-23
2023/09/17 02:29:38;;;;;;;11.70;8.10;;;;;;;15.11;78.00;99729.63;104835;1266;61176;-23
2023/09/17 02:32:06;;;;;;;10.80;5.40;;;;;;;14.92;78.95;99729.42;104896;1266;61136;-23
2023/09/17 02:34:34;;;;;;;8.50;6.00;;;;;;;15.35;78.94;99729.77;104827;1266;73031;-23
2023/09/17 02:44:40;;;;;;;10.50;8.10;;;;;;;15.50;77.21;99728.10;102612;1294;599898;-22
2023/09/17 02:47:09;;;;;;;10.20;8.30;;;;;;;15.25;77.39;99728.39;104934;1270;61005;-21
2023/09/17 02:49:37;;;;;;;10.60;7.90;;;;;;;15.03;78.16;99724.09;104794;1267;61232;-21
2023/09/17 02:52:06;;;;;;;6.90;5.60;;;;;;;14.86;78.69;99721.91;105614;1259;72193;-22
2023/09/17 02:54:34;;;;;;;8.60;5.60;;;;;;;15.30;78.57;99718.51;105687;1259;74284;-21
2023/09/17 02:57:03;;;;;;;9.50;6.70;;;;;;;15.73;76.85;99714.27;105685;1255;72725;-21
2023/09/17 02:59:34;;;;;;;10.50;7.30;;;;;;;15.71;76.46;99716.92;103455;1262;61137;-21
2023/09/17 03:02:03;;;;;;;8.50;7.20;;;;;;;15.49;76.56;99713.46;105618;1260;61237;-21
2023/09/17 03:04:33;;;;;;;10.00;8.00;;;;;;;15.21;77.15;99713.21;105776;1257;72224;-21
2023/09/17 03:07:04;;;;;;;10.80;8.00;;;;;;;14.98;77.83;99712.66;105960;1255;73110;-21
2023/09/17 03:09:32;;;;;;;8.80;5.60;;;;;;;14.77;78.67;99710.63;105739;1259;72399;-21
2023/09/17 03:12:01;;;;;;;6.60;5.40;;;;;;;15.15;78.65;99714.20;105873;1254;61138;-21
2023/09/17 03:22:08;;;;;;;11.30;8.60;;;;;;;15.26;76.61;99711.20;102847;1289;600213;-21
2023/09/17 03:24:37;;;;;;;11.80;8.60;;;;;;;14.97;77.09;99714.10;104814;1270;61216;-21
2023/09/17 03:27:11;;;;;;;15.20;9.50;;;;;;;14.74;77.74;99714.21;104791;1267;61091;-22
2023/09/17 03:29:40;;;;;;;7.30;5.60;;;;;;;14.57;78.34;99716.39;104885;1270;70646;-21
2023/09/17 03:32:09;;;;;;;8.80;5.70;;;;;;;14.99;78.56;99716.86;104784;1266;74406;-21
2023/09/17 03:34:37;;;;;;;6.70;6.00;;;;;;;15.51;77.14;99714.36;102688;1270;2935475;-22
2023/09/17 03:37:05;;;;;;;10.90;8.10;;;;;;;15.53;76.37;99707.37;104703;1272;61129;-21
2023/09/17 03:39:33;;;;;;;9.40;7.50;;;;;;;15.35;76.31;99705.15;105563;1255;61145;-21
2023/09/17 03:49:39;;;;;;;8.00;6.00;;;;;;;14.31;78.75;99710.75;102621;1295;599425;-21
2023/09/17 03:52:08;;;;;;;7.00;5.40;;;;;;;14.78;78.78;99707.89;104938;1270;61190;-21
2023/09/17 04:02:15;;;;;;;9.70;7.70;;;;;;;14.71;77.57;99705.20;102676;1295;601302;-21
2023/09/17 04:04:43;;;;;;;15.40;10.30;;;;;;;14.40;78.74;99698.75;104916;1270;61870;-21
2023/09/17 04:07:11;;;;;;;22.20;13.80;;;;;;;14.20;79.33;99702.27;104840;1267;61266;-21
2023/09/17 04:09:39;;;;;;;33.60;19.80;;;;;;;14.54;79.40;99696.69;104830;1270;72214;-21
2023/09/17 04:18:38;;;;;;;13.60;9.90;;;;;;;14.71;78.28;99693.98;102610;1292;600173;-21
2023/09/17 04:21:05;;;;;;;13.60;10.20;;;;;;;14.43;78.58;99696.28;104836;1269;61152;-21
2023/09/17 04:23:33;;;;;;;13.10;9.90;;;;;;;14.19;79.09;99698.83;104782;1266;61076;-22
2023/09/17 04:26:02;;;;;;;8.50;6.20;;;;;;;14.01;79.83;99697.41;104736;1266;72245;-21
2023/09/17 04:28:30;;;;;;;9.90;6.90;;;;;;;14.44;80.04;99700.19;104863;1266;73059;-21
2023/09/17 04:38:38;;;;;;;9.90;8.00;;;;;;;14.91;77.79;99700.30;102678;1292;599469;-21
2023/09/17 04:41:06;;;;;;;9.30;7.90;;;;;;;14.76;78.16;99697.13;104950;1264;61121;-21
2023/09/17 12:30:13;;;;;;;4.30;2.00;;;;;;;26.83;33.76;99552.11;103070;1286;601081;-22
2023/09/17 12:32:41;;;;;;;4.00;2.30;;;;;;;26.69;35.04;99550.73;105128;1264;61262;-22
2023/09/17 12:35:09;;;;;;;2.50;2.30;;;;;;;26.82;34.72;99553.34;104770;1273;61198;-22
2023/09/17 12:37:37;;;;;;;3.30;2.00;;;;;;;27.14;34.35;99552.27;104886;1271;72196;-22
2023/09/17 12:40:09;;;;;;;4.00;2.20;;;;;;;27.17;34.18;99548.13;104875;1264;72111;-22
2023/09/17 12:50:27;;;;;;;2.10;1.90;;;;;;;26.93;33.59;99544.77;102611;1293;600228;-22
2023/09/17 12:52:55;;;;;;;4.50;2.10;;;;;;;26.68;34.50;99548.08;104822;1272;61267;-22
2023/09/17 13:03:18;;;;;;;2.60;2.00;;;;;;;26.71;35.28;99540.58;102638;1295;599402;-22
2023/09/17 13:05:55;;;;;;;2.50;2.00;;;;;;;26.90;34.87;99539.60;104816;1267;61119;-22
2023/09/17 13:08:25;;;;;;;2.30;2.00;;;;;;;27.16;34.57;99538.32;104867;1266;61068;-22
2023/09/17 13:10:56;;;;;;;3.10;2.10;;;;;;;27.34;34.26;99528.63;104817;1267;71151;-22
2023/09/17 13:21:08;;;;;;;3.40;2.30;;;;;;;26.77;34.18;99522.43;102568;1291;600587;-22
2023/09/17 13:23:37;;;;;;;2.70;2.20;;;;;;;26.20;35.51;99522.43;104796;1269;61140;-22
2023/09/17 13:26:05;;;;;;;2.80;2.30;;;;;;;26.41;35.73;99519.96;104774;1275;61125;-22
2023/09/17 13:28:34;;;;;;;5.20;2.10;;;;;;;26.54;34.90;99520.68;104585;1273;72243;-22
2023/09/17 13:31:06;;;;;;;3.60;2.20;;;;;;;26.56;35.14;99520.04;104475;1274;73157;-22
2023/09/17 13:33:37;;;;;;;3.00;2.00;;;;;;;26.70;35.27;99516.59;103803;1273;3202854;-23
2023/09/17 13:43:48;;;;;;;2.10;1.90;;;;;;;27.30;34.76;99514.67;102585;1293;600198;-22
2023/09/17 13:46:16;;;;;;;2.30;1.90;;;;;;;27.31;34.12;99513.30;104838;1271;61305;-22
2023/09/17 13:48:44;;;;;;;2.60;2.10;;;;;;;27.28;34.23;99513.70;104837;1271;61055;-22
2023/09/17 13:51:12;;;;;;;3.40;2.00;;;;;;;27.29;34.09;99514.44;104830;1272;71205;-22
2023/09/17 13:53:40;;;;;;;2.50;2.20;;;;;;;27.31;34.43;99516.93;104875;1267;74291;-22
2023/09/17 13:56:08;;;;;;;2.40;1.80;;;;;;;27.40;34.00;99513.06;104765;1266;71708;-22
2023/09/17 13:58:36;;;;;;;1.90;1.70;;;;;;;27.41;33.88;99505.77;102642;1272;3009001;-22
2023/09/17 14:01:05;;;;;;;3.20;2.00;;;;;;;27.31;34.07;99514.66;105092;1263;61180;-22
2023/09/17 14:03:34;;;;;;;4.90;2.00;;;;;;;27.35;34.30;99509.94;105142;1269;72207;-22
2023/09/17 14:06:02;;;;;;;2.40;1.80;;;;;;;27.41;33.92;99506.09;105121;1268;74221;-22
2023/09/17 14:08:34;;;;;;;2.40;2.10;;;;;;;27.33;33.95;99508.92;104893;1267;72727;-22
2023/09/17 14:11:05;;;;;;;3.00;2.20;;;;;;;27.22;34.08;99504.48;104871;1263;61164;-22
2023/09/17 14:13:35;;;;;;;4.10;2.10;;;;;;;27.10;34.49;99509.67;105170;1263;61765;-22
2023/09/17 14:16:03;;;;;;;2.50;1.70;;;;;;;27.10;34.43;99506.23;105573;1262;73079;-22
2023/09/17 14:18:31;;;;;;;5.00;1.90;;;;;;;26.99;34.12;99502.11;105383;1257;74362;-22
2023/09/17 14:21:00;;;;;;;2.90;2.00;;;;;;;26.81;34.41;99505.41;105536;1258;72632;-22
2023/09/17 14:23:29;;;;;;;2.10;1.90;;;;;;;26.75;34.49;99502.24;105329;1264;61183;-22
2023/09/17 14:34:01;;;;;;;3.10;2.20;;;;;;;26.65;34.38;99498.68;102495;1292;615246;-22
2023/09/17 14:36:29;;;;;;;2.30;1.90;;;;;;;26.58;34.56;99502.36;105138;1263;61005;-22
2023/09/17 14:38:56;;;;;;;3.60;2.10;;;;;;;26.53;34.77;99505.20;105192;1264;61710;-22
2023/09/17 14:41:23;;;;;;;4.10;2.00;;;;;;;26.53;34.88;99510.17;105174;1263;72136;-22
2023/09/17 14:43:51;;;;;;;2.40;2.00;;;;;;;26.28;34.90;99509.52;104840;1263;74271;-22
2023/09/17 14:46:18;;;;;;;3.70;2.00;;;;;;;26.19;35.10;99512.04;103011;1263;2954569;-22
2023/09/17 14:48:47;;;;;;;3.60;1.90;;;;;;;26.14;35.26;99505.21;105123;1262;61046;-22
2023/09/17 14:51:14;;;;;;;3.60;2.10;;;;;;;26.16;35.60;99504.89;105122;1261;61171;-22
2023/09/17 14:53:41;;;;;;;1.70;1.60;;;;;;;26.19;35.44;99508.48;105172;1261;72264;-22
2023/09/17 14:56:08;;;;;;;3.30;1.80;;;;;;;26.16;35.45;99509.07;105238;1260;74364;-22
2023/09/17 14:58:36;;;;;;;2.70;2.30;;;;;;;26.05;35.30;99508.30;105219;1264;72732;-22
2023/09/17 15:01:03;;;;;;;2.80;1.70;;;;;;;25.91;35.45;99506.63;105192;1260;61052;-22
2023/09/17 15:03:33;;;;;;;5.50;2.20;;;;;;;25.70;35.40;99509.08;105258;1263;61587;-23
2023/09/17 15:06:01;;;;;;;2.90;1.80;;;;;;;25.59;35.74;99507.70;105232;1261;72080;-23
2023/09/17 15:08:28;;;;;;;4.50;2.10;;;;;;;25.39;36.14;99510.64;105256;1263;74265;-24
2023/09/17 15:10:55;;;;;;;2.90;1.80;;;;;;;25.34;36.23;99507.70;105020;1261;72635;-23
2023/09/17 15:13:22;;;;;;;4.50;1.90;;;;;;;25.26;36.39;99503.95;105169;1262;61193;-23
2023/09/17 15:15:50;;;;;;;3.30;1.90;;;;;;;25.17;36.58;99504.80;105132;1261;61109;-23
2023/09/17 15:18:17;;;;;;;2.70;1.80;;;;;;;25.17;36.69;99505.02;105101;1260;73453;-24
2023/09/17 15:20:44;;;;;;;2.40;1.60;;;;;;;25.11;37.06;99503.23;105252;1261;73308;-24
2023/09/17 15:23:12;;;;;;;3.20;1.80;;;;;;;25.04;36.93;99505.42;105007;1263;72639;-23
2023/09/17 15:25:39;;;;;;;2.90;1.70;;;;;;;24.79;37.01;99510.68;105209;1266;61116;-23
2023/09/17 15:28:07;;;;;;;2.10;1.80;;;;;;;24.71;37.44;99511.27;105217;1263;61140;-24
2023/09/17 15:30:35;;;;;;;2.50;1.80;;;;;;;24.65;37.76;99510.26;105242;1261;72880;-22
2023/09/17 15:33:03;;;;;;;3.40;1.90;;;;;;;24.56;37.96;99508.38;105030;1268;74927;-23
2023/09/17 15:35:30;;;;;;;2.10;1.90;;;;;;;24.50;38.28;99508.63;105092;1262;72762;-23
2023/09/17 15:38:07;;;;;;;2.50;1.90;;;;;;;24.46;38.39;99506.17;105025;1263;61276;-23
2023/09/17 15:40:34;;;;;;;6.70;2.00;;;;;;;24.38;38.69;99506.54;104925;1261;61215;-23
2023/09/17 15:43:01;;;;;;;2.90;2.10;;;;;;;24.30;38.93;99502.48;104934;1261;72348;-23
2023/09/17 15:45:29;;;;;;;11.50;2.10;;;;;;;24.21;39.06;99502.00;105177;1261;74361;-23
2023/09/17 15:47:56;;;;;;;4.70;2.00;;;;;;;24.10;39.25;99500.30;105189;1261;73069;-23
2023/09/17 15:50:23;;;;;;;4.80;2.30;;;;;;;23.95;39.48;99501.36;104915;1263;61199;-23
2023/09/17 15:52:51;;;;;;;2.10;1.70;;;;;;;23.81;39.78;99503.34;105175;1265;61110;-23
2023/09/17 15:55:19;;;;;;;3.10;2.00;;;;;;;23.67;39.96;99505.59;104913;1261;72881;-23
2023/09/17 15:57:46;;;;;;;7.70;2.10;;;;;;;23.51;40.35;99504.27;105173;1260;74289;-23
2023/09/17 16:00:14;;;;;;;5.70;2.20;;;;;;;23.34;40.85;99500.52;105082;1261;72481;-23
2023/09/17 16:02:42;;;;;;;3.80;2.10;;;;;;;23.16;41.05;99499.30;105013;1261;61144;-23
2023/09/17 16:05:09;;;;;;;2.80;2.10;;;;;;;22.98;41.62;99500.67;105169;1263;62443;-23
2023/09/17 16:07:40;;;;;;;3.50;2.10;;;;;;;22.80;41.97;99503.02;105035;1261;73020;-23
2023/09/17 16:10:10;;;;;;;6.70;2.70;;;;;;;22.62;42.50;99497.66;104990;1260;76087;-23
2023/09/17 16:12:37;;;;;;;8.30;2.70;;;;;;;22.42;42.93;99501.83;105067;1261;72648;-23
2023/09/17 16:15:05;;;;;;;4.70;2.70;;;;;;;22.21;42.98;99503.20;105110;1261;61147;-23
2023/09/17 16:17:32;;;;;;;5.80;3.20;;;;;;;22.01;43.52;99499.48;105219;1266;61845;-23
2023/09/17 16:20:00;;;;;;;4.00;2.60;;;;;;;21.81;43.98;99500.80;105238;1261;73078;-23
2023/09/17 16:22:27;;;;;;;4.30;3.00;;;;;;;21.62;44.36;99495.85;105266;1260;76035;-23
2023/09/17 16:24:55;;;;;;;6.20;2.40;;;;;;;21.43;45.11;99495.61;105110;1262;74462;-23
2023/09/17 16:27:22;;;;;;;5.40;2.70;;;;;;;21.24;45.50;99497.90;105105;1261;61116;-23
2023/09/17 16:29:49;;;;;;;3.00;2.30;;;;;;;21.06;45.86;99498.02;105017;1265;61119;-22
2023/09/17 16:32:18;;;;;;;5.70;2.70;;;;;;;20.86;46.53;99500.40;105139;1263;75442;-23
2023/09/17 16:34:47;;;;;;;5.50;3.10;;;;;;;20.72;46.94;99505.70;105064;1261;74343;-23
2023/09/17 16:37:15;;;;;;;5.90;3.40;;;;;;;20.56;47.32;99504.59;105210;1264;73168;-22
2023/09/17 16:39:42;;;;;;;8.00;3.40;;;;;;;20.41;47.87;99512.86;104886;1266;61129;-23
2023/09/17 16:42:09;;;;;;;4.30;2.70;;;;;;;20.25;48.17;99516.34;104852;1263;61255;-23
2023/09/17 16:44:36;;;;;;;4.90;3.00;;;;;;;20.10;48.53;99514.90;105171;1263;72755;-23
2023/09/17 16:47:03;;;;;;;5.50;2.30;;;;;;;19.96;48.98;99517.44;105151;1263;74338;-23
2023/09/17 16:49:30;;;;;;;3.40;2.50;;;;;;;19.82;49.60;99517.97;105181;1261;73343;-23
2023/09/17 16:51:57;;;;;;;3.60;2.90;;;;;;;19.67;50.34;99516.52;105069;1263;61064;-23
2023/09/17 16:54:24;;;;;;;3.50;2.60;;;;;;;19.54;50.62;99521.70;105042;1261;61107;-23
2023/09/17 16:56:51;;;;;;;4.10;2.70;;;;;;;19.40;51.40;99522.18;105207;1260;72994;-22
2023/09/17 16:59:19;;;;;;;5.30;3.10;;;;;;;19.26;51.47;99524.61;105213;1263;74366;-23
2023/09/17 17:01:46;;;;;;;6.20;2.90;;;;;;;19.12;52.04;99526.16;105168;1261;72642;-23
2023/09/17 17:04:13;;;;;;;6.70;2.60;;;;;;;18.99;52.45;99524.78;105064;1261;61046;-23
2023/09/17 17:06:41;;;;;;;4.20;3.10;;;;;;;18.86;52.52;99525.27;105164;1263;61497;-23
2023/09/17 17:09:08;;;;;;;4.20;3.30;;;;;;;18.73;53.05;99527.84;105170;1263;72908;-22
2023/09/17 17:11:35;;;;;;;4.50;3.30;;;;;;;18.61;53.53;99525.33;105222;1263;75889;-23
2023/09/17 17:14:02;;;;;;;5.10;3.40;;;;;;;18.51;53.87;99528.51;105172;1261;72587;-23
2023/09/17 17:16:30;;;;;;;3.90;2.90;;;;;;;18.40;54.65;99528.20;105215;1263;61041;-23
2023/09/17 17:18:57;;;;;;;8.30;3.40;;;;;;;18.29;54.95;99527.97;105204;1266;61147;-23
2023/09/17 17:21:24;;;;;;;5.60;3.20;;;;;;;18.19;55.59;99527.63;105253;1263;72700;-23
2023/09/17 17:23:51;;;;;;;5.70;3.20;;;;;;;18.09;55.97;99531.50;105210;1263;73144;-23
2023/09/17 17:26:18;;;;;;;8.10;4.40;;;;;;;17.97;56.39;99531.46;105215;1261;72628;-23
2023/09/17 17:28:46;;;;;;;6.50;3.50;;;;;;;17.86;56.56;99535.96;105230;1261;61763;-23
2023/09/17 17:31:13;;;;;;;5.20;3.20;;;;;;;17.75;56.59;99538.19;105176;1263;61110;-23
2023/09/17 17:33:41;;;;;;;5.50;3.20;;;;;;;17.63;56.94;99536.88;105192;1261;75046;-23
2023/09/17 17:36:08;;;;;;;5.50;3.00;;;;;;;17.54;57.56;99542.45;105189;1263;74298;-22
2023/09/17 17:38:36;;;;;;;6.80;2.90;;;;;;;17.44;57.89;99545.71;105228;1261;74034;-23
2023/09/17 17:41:04;;;;;;;4.00;2.60;;;;;;;17.35;58.00;99545.39;105031;1261;61937;-22
2023/09/17 17:43:35;;;;;;;5.10;3.00;;;;;;;17.26;58.71;99549.81;104972;1266;61071;-23
2023/09/17 17:46:03;;;;;;;5.70;3.00;;;;;;;17.18;59.12;99551.52;105027;1263;74596;-23
2023/09/17 17:48:31;;;;;;;6.30;3.00;;;;;;;17.10;58.76;99553.67;105098;1263;74221;-23
2023/09/17 17:50:59;;;;;;;11.90;3.70;;;;;;;17.03;59.20;99552.08;105250;1263;74413;-23
2023/09/17 17:53:26;;;;;;;7.60;3.70;;;;;;;16.98;59.30;99555.75;105090;1263;62050;-24
2023/09/17 17:55:53;;;;;;;4.90;3.40;;;;;;;16.93;59.23;99557.94;105120;1265;62013;-23
2023/09/17 17:58:20;;;;;;;6.30;3.40;;;;;;;16.89;59.38;99557.85;105124;1263;74400;-23
2023/09/17 18:00:49;;;;;;;5.10;3.00;;;;;;;16.85;59.36;99562.41;105262;1263;76199;-23
2023/09/17 18:03:16;;;;;;;4.80;2.80;;;;;;;16.82;59.82;99560.64;105009;1264;72654;-23
2023/09/17 18:05:44;;;;;;;6.60;3.50;;;;;;;16.79;59.77;99558.82;105182;1263;61797;-23
2023/09/17 18:08:12;;;;;;;5.30;3.50;;;;;;;16.76;59.93;99557.56;104996;1265;61807;-23
2023/09/17 18:10:40;;;;;;;5.20;3.30;;;;;;;16.71;59.83;99557.17;105232;1262;74602;-23
2023/09/17 18:13:07;;;;;;;11.30;3.40;;;;;;;16.64;59.96;99558.70;105218;1264;74309;-23
2023/09/17 18:15:35;;;;;;;6.30;3.50;;;;;;;16.55;60.47;99562.45;105162;1263;72481;-23
2023/09/17 18:18:02;;;;;;;5.70;3.40;;;;;;;16.45;60.95;99563.52;105192;1263;61070;-23
2023/09/17 18:20:31;;;;;;;6.70;4.10;;;;;;;16.37;61.23;99564.70;105110;1261;62017;-23
2023/09/17 18:22:59;;;;;;;5.30;3.60;;;;;;;16.27;62.03;99567.79;105123;1263;72851;-23
2023/09/17 18:25:28;;;;;;;5.90;3.30;;;;;;;16.20;62.56;99574.04;105245;1263;76046;-23
2023/09/17 18:27:56;;;;;;;7.30;4.20;;;;;;;16.13;62.56;99577.02;105186;1266;73986;-23
2023/09/17 18:30:23;;;;;;;8.70;4.40;;;;;;;16.06;63.14;99576.58;105153;1261;61190;-23
2023/09/17 18:32:50;;;;;;;7.60;4.10;;;;;;;16.01;63.43;99578.45;105235;1261;61122;-23
2023/09/17 18:35:17;;;;;;;12.40;4.40;;;;;;;15.96;63.43;99574.80;105240;1263;74641;-23
2023/09/17 18:37:45;;;;;;;7.30;4.40;;;;;;;15.90;64.17;99574.36;105144;1263;74304;-23
2023/09/17 18:40:12;;;;;;;7.40;4.10;;;;;;;15.88;64.14;99572.34;105125;1266;74287;-23
2023/09/17 18:42:39;;;;;;;9.10;4.10;;;;;;;16.38;64.86;99571.48;105132;1263;61139;-23
2023/09/17 18:45:07;;;;;;;7.80;3.90;;;;;;;16.97;63.64;99567.19;105108;1262;61917;-23
2023/09/17 18:47:38;;;;;;;7.50;4.30;;;;;;;17.12;62.64;99561.70;104922;1269;73774;-23
2023/09/17 18:50:06;;;;;;;6.50;4.00;;;;;;;17.04;62.27;99563.60;105251;1263;75045;-24
2023/09/17 18:52:33;;;;;;;9.90;4.90;;;;;;;16.87;62.57;99561.34;105189;1267;72509;-23
2023/09/17 18:55:02;;;;;;;9.00;4.50;;;;;;;16.70;62.72;99560.77;105199;1265;62196;-23
2023/09/17 18:57:29;;;;;;;8.30;4.40;;;;;;;16.54;62.75;99565.50;105074;1265;61712;-23
2023/09/17 18:59:57;;;;;;;7.90;4.30;;;;;;;16.40;63.02;99559.33;105232;1263;73640;-23
2023/09/17 19:02:24;;;;;;;7.00;4.30;;;;;;;16.28;63.32;99564.70;105142;1264;73422;-23
2023/09/17 19:04:51;;;;;;;8.40;4.20;;;;;;;16.15;63.76;99557.30;105307;1257;73257;-23
2023/09/17 19:07:19;;;;;;;6.30;4.20;;;;;;;16.02;64.51;99560.21;105389;1256;62063;-23
2023/09/17 19:09:46;;;;;;;6.30;3.90;;;;;;;15.89;64.62;99561.90;105302;1261;61711;-23
2023/09/17 19:12:13;;;;;;;7.70;4.70;;;;;;;15.77;64.85;99564.46;105562;1259;75590;-23
2023/09/17 19:14:42;;;;;;;9.40;4.50;;;;;;;15.66;65.44;99558.49;105606;1257;75835;-23
2023/09/17 19:17:09;;;;;;;7.90;5.00;;;;;;;15.57;65.45;99552.64;105240;1257;72474;-23
2023/09/17 19:19:37;;;;;;;6.10;3.40;;;;;;;15.51;66.06;99552.64;105384;1256;63407;-23
2023/09/17 19:22:08;;;;;;;5.80;4.00;;;;;;;16.01;66.68;99552.70;105552;1259;61317;-24
2023/09/17 19:24:36;;;;;;;6.10;3.70;;;;;;;16.62;65.28;99550.48;105552;1257;73636;-24
2023/09/17 19:27:04;;;;;;;6.90;4.60;;;;;;;16.75;64.31;99548.35;105536;1257;74311;-24
2023/09/17 19:29:31;;;;;;;8.30;4.60;;;;;;;16.64;64.33;99542.77;105597;1257;74236;-24
2023/09/17 19:31:58;;;;;;;9.60;4.70;;;;;;;16.45;64.48;99545.31;105418;1257;61890;-24
2023/09/17 19:34:26;;;;;;;7.00;3.90;;;;;;;16.24;64.98;99542.79;105621;1255;61164;-25
2023/09/17 19:36:53;;;;;;;6.30;4.10;;;;;;;16.04;64.99;99541.80;105545;1257;76108;-24
2023/09/17 19:39:21;;;;;;;6.20;4.70;;;;;;;15.85;65.66;99543.20;105443;1257;73766;-24
2023/09/17 19:41:48;;;;;;;6.50;4.30;;;;;;;15.69;65.98;99545.76;105489;1257;72436;-23
2023/09/17 19:44:15;;;;;;;6.50;4.30;;;;;;;15.55;66.60;99545.70;105417;1256;61140;-24
2023/09/17 19:46:42;;;;;;;6.30;4.40;;;;;;;15.42;67.01;99545.34;105623;1259;61982;-24
2023/09/17 19:49:10;;;;;;;7.60;4.50;;;;;;;15.30;67.15;99545.02;105578;1257;73844;-24
2023/09/17 19:51:37;;;;;;;6.00;3.00;;;;;;;15.21;68.53;99544.05;105558;1259;74387;-23
2023/09/17 19:54:05;;;;;;;6.80;3.40;;;;;;;15.68;68.32;99543.09;105616;1257;72643;-23
2023/09/17 19:56:32;;;;;;;5.30;3.50;;;;;;;16.26;66.70;99543.14;105494;1257;61164;-24
2023/09/17 19:58:59;;;;;;;6.00;3.50;;;;;;;16.37;66.09;99541.85;105443;1259;61085;-24
2023/09/17 20:01:27;;;;;;;6.90;3.50;;;;;;;16.23;65.94;99540.10;105642;1257;73868;-24
2023/09/17 20:03:55;;;;;;;5.80;3.50;;;;;;;16.02;66.24;99541.03;105453;1254;74387;-24
2023/09/17 20:06:22;;;;;;;8.60;4.10;;;;;;;15.80;65.72;99541.59;105444;1257;72718;-23
2023/09/17 20:08:49;;;;;;;6.10;3.90;;;;;;;15.61;66.48;99536.73;105469;1254;61049;-23
2023/09/17 20:11:17;;;;;;;6.40;4.20;;;;;;;15.42;66.82;99534.52;105579;1259;61105;-24
2023/09/17 20:13:45;;;;;;;5.80;4.10;;;;;;;15.20;67.72;99534.04;105638;1259;72356;-23
2023/09/17 20:16:14;;;;;;;7.80;4.50;;;;;;;15.01;68.17;99529.14;105673;1261;74187;-24
2023/09/17 20:18:41;;;;;;;6.10;2.60;;;;;;;14.86;68.95;99528.41;105447;1257;71558;-23
2023/09/17 20:21:10;;;;;;;6.00;2.90;;;;;;;15.24;69.23;99528.44;105553;1259;61176;-23
2023/09/17 20:23:37;;;;;;;7.90;3.30;;;;;;;15.71;68.32;99525.39;105605;1255;61151;-24
2023/09/17 20:26:09;;;;;;;10.60;3.70;;;;;;;15.76;67.64;99522.02;105630;1257;73939;-24
2023/09/17 20:28:37;;;;;;;6.20;3.90;;;;;;;15.58;67.50;99517.55;105657;1257;74333;-23
2023/09/17 20:31:04;;;;;;;6.10;4.00;;;;;;;15.36;67.68;99519.27;105597;1256;72640;-23
2023/09/17 20:33:31;;;;;;;8.90;4.00;;;;;;;15.15;68.42;99521.38;105560;1257;61191;-23
2023/09/17 20:35:58;;;;;;;17.70;4.80;;;;;;;14.96;68.48;99518.55;105574;1255;61180;-23
2023/09/17 20:38:25;;;;;;;17.70;4.90;;;;;;;14.80;69.03;99517.23;105633;1257;73523;-25
2023/09/17 20:40:52;;;;;;;20.30;5.00;;;;;;;14.65;69.32;99517.00;105638;1257;74165;-23
2023/09/17 20:43:20;;;;;;;22.60;4.30;;;;;;;14.54;69.55;99514.69;105565;1257;72634;-23
2023/09/17 20:45:47;;;;;;;11.60;4.10;;;;;;;14.96;70.10;99514.02;105426;1257;61209;-24